Time;durP1;ratioP1;P1;durP2;ratioP2;P2;SDS_P1;SDS_P2;PMS_P1;PMS_P2;Temp;Humidity;BMP_temperature;BMP_pressure;BME280_temperature;BME280_humidity;BME280_pressure;Samples;Min_cycle;Max_cycle;Signal;HPM_P1;HPM_P2
2021/07/11 00:01:33;;;;;;;13.77;12.47;;;;;;;17.56;77.38;100782.03;5022790;28;20203;-66
2021/07/11 00:04:01;;;;;;;14.40;12.77;;;;;;;17.55;77.63;100774.97;5025081;28;20216;-66
2021/07/11 00:06:28;;;;;;;14.43;12.57;;;;;;;17.50;77.59;100775.38;5028340;28;20226;-66
2021/07/11 00:08:54;;;;;;;12.60;11.30;;;;;;;17.46;77.39;100773.09;5025693;28;20283;-67
2021/07/11 00:11:21;;;;;;;15.93;10.57;;;;;;;17.39;77.62;100777.31;5031112;28;20202;-67
2021/07/11 00:13:48;;;;;;;12.27;10.93;;;;;;;17.35;77.75;100772.25;5031999;28;20209;-67
2021/07/11 00:16:14;;;;;;;12.70;11.40;;;;;;;17.32;77.83;100769.81;5024470;28;20256;-67
2021/07/11 00:18:41;;;;;;;11.80;10.70;;;;;;;17.30;77.84;100777.16;5030321;28;20210;-67
2021/07/11 00:21:08;;;;;;;14.60;10.43;;;;;;;17.25;77.68;100767.78;5032913;28;20673;-67
2021/07/11 00:23:35;;;;;;;13.10;10.50;;;;;;;17.22;77.67;100770.75;5023416;28;20216;-67
2021/07/11 00:26:01;;;;;;;11.90;10.70;;;;;;;17.19;77.55;100768.38;5019003;28;20240;-66
2021/07/11 00:28:28;;;;;;;12.20;11.10;;;;;;;17.17;77.94;100760.41;5024045;28;20630;-66
2021/07/11 00:30:55;;;;;;;14.30;12.93;;;;;;;17.18;78.25;100766.66;5024649;28;20208;-67
2021/07/11 00:33:21;;;;;;;13.97;12.50;;;;;;;17.19;78.31;100766.53;5026122;28;20259;-67
2021/07/11 00:35:48;;;;;;;13.77;12.60;;;;;;;17.20;78.63;100761.97;5020697;28;20224;-67
2021/07/11 00:38:16;;;;;;;13.93;12.57;;;;;;;17.20;78.83;100762.81;5026922;28;20595;-67
2021/07/11 00:40:42;;;;;;;16.23;13.07;;;;;;;17.20;78.85;100762.81;5024904;28;20216;-67
2021/07/11 00:43:10;;;;;;;14.73;13.27;;;;;;;17.18;78.85;100769.34;5023523;28;20208;-67
2021/07/11 00:45:37;;;;;;;14.27;12.87;;;;;;;17.14;78.95;100774.16;5028197;28;20231;-67
2021/07/11 00:48:04;;;;;;;14.93;12.10;;;;;;;17.09;78.90;100771.00;5030976;28;20212;-65
2021/07/11 00:50:31;;;;;;;13.97;11.47;;;;;;;17.03;78.84;100766.16;5023844;28;20232;-67
2021/07/11 00:52:58;;;;;;;20.23;11.23;;;;;;;16.96;78.49;100770.38;5026082;28;20208;-67
2021/07/11 00:55:27;;;;;;;17.17;11.00;;;;;;;16.86;78.25;100780.25;5031525;28;20223;-67
2021/07/11 00:57:54;;;;;;;16.70;11.33;;;;;;;16.74;77.94;100781.31;5031536;28;20213;-67
2021/07/11 01:00:22;;;;;;;13.43;12.10;;;;;;;16.63;77.77;100780.44;5024989;28;20208;-67
2021/07/11 01:02:54;;;;;;;16.87;12.50;;;;;;;16.59;78.77;100778.94;5025251;28;20203;-67
2021/07/11 01:05:23;;;;;;;13.07;11.87;;;;;;;16.61;79.08;100778.81;5015230;28;20220;-66
2021/07/11 01:07:59;;;;;;;13.50;11.43;;;;;;;16.64;79.41;100784.81;5027269;28;20205;-68
2021/07/11 01:10:32;;;;;;;14.43;12.83;;;;;;;16.65;79.56;100783.84;5024046;28;20259;-67
2021/07/11 01:12:59;;;;;;;17.33;13.00;;;;;;;16.65;79.89;100783.84;5025856;28;20212;-67
2021/07/11 01:15:27;;;;;;;13.83;12.43;;;;;;;16.67;79.95;100783.69;5032056;28;20218;-67
2021/07/11 01:17:59;;;;;;;12.90;11.77;;;;;;;16.69;79.97;100779.03;5023538;28;20209;-68
2021/07/11 01:20:36;;;;;;;14.07;12.70;;;;;;;16.70;79.72;100777.19;5031933;28;20287;-68
2021/07/11 01:23:07;;;;;;;13.77;12.57;;;;;;;16.73;80.05;100779.59;5031156;28;20337;-68
2021/07/11 01:25:36;;;;;;;13.70;12.40;;;;;;;16.73;79.82;100780.47;5022833;28;20220;-68
2021/07/11 01:28:06;;;;;;;12.50;11.50;;;;;;;16.71;79.85;100776.19;5020896;28;20213;-68
2021/07/11 01:30:33;;;;;;;13.90;11.20;;;;;;;16.67;79.76;100776.47;5021496;28;20232;-68
2021/07/11 01:33:01;;;;;;;25.07;12.43;;;;;;;16.62;79.32;100786.75;5025778;28;20230;-68
2021/07/11 01:35:28;;;;;;;12.13;10.80;;;;;;;16.54;79.21;100781.16;5021372;28;20208;-68
2021/07/11 01:37:55;;;;;;;13.57;11.57;;;;;;;16.45;79.12;100784.66;5022727;28;20206;-68
2021/07/11 01:40:23;;;;;;;14.57;10.77;;;;;;;16.38;79.04;100777.25;5019390;28;20665;-68
2021/07/11 01:42:53;;;;;;;13.17;10.10;;;;;;;16.31;79.00;100784.97;5019835;28;20204;-67
2021/07/11 01:45:20;;;;;;;14.50;9.93;;;;;;;16.29;79.11;100784.28;5027560;28;20203;-68
2021/07/11 01:47:47;;;;;;;13.97;10.40;;;;;;;16.29;79.21;100778.91;5018474;28;20214;-68
2021/07/11 01:50:14;;;;;;;12.73;9.50;;;;;;;16.28;79.20;100778.03;5019034;28;20717;-68
2021/07/11 01:52:42;;;;;;;12.83;9.57;;;;;;;16.26;79.12;100768.41;5019098;28;20241;-68
2021/07/11 01:55:10;;;;;;;12.27;9.97;;;;;;;16.22;78.80;100770.50;5018228;28;20208;-68
2021/07/11 01:57:37;;;;;;;15.40;10.90;;;;;;;16.19;78.89;100764.53;5016266;28;20217;-68
2021/07/11 02:00:07;;;;;;;12.73;10.63;;;;;;;16.16;79.12;100767.47;5019522;28;20239;-68
2021/07/11 02:02:33;;;;;;;12.60;11.07;;;;;;;16.14;79.13;100762.22;5026399;28;20668;-67
2021/07/11 02:05:02;;;;;;;13.77;10.87;;;;;;;16.12;79.08;100757.97;5016385;28;20583;-68
2021/07/11 02:07:28;;;;;;;12.87;10.43;;;;;;;16.11;79.05;100761.66;5018741;28;20239;-68
2021/07/11 02:09:55;;;;;;;12.30;11.13;;;;;;;16.11;79.45;100759.81;5020478;28;20223;-67
2021/07/11 02:12:24;;;;;;;11.90;10.60;;;;;;;16.11;79.48;100764.34;5027391;28;20203;-67
2021/07/11 02:14:53;;;;;;;14.93;11.00;;;;;;;16.10;79.61;100762.63;5030782;28;20208;-67
2021/07/11 02:17:25;;;;;;;14.27;11.27;;;;;;;16.10;79.51;100743.81;5016352;28;20238;-66
2021/07/11 02:19:53;;;;;;;12.13;10.77;;;;;;;16.10;79.49;100741.13;5019564;28;20207;-67
2021/07/11 02:22:20;;;;;;;13.33;10.13;;;;;;;16.08;79.60;100737.72;5023908;28;20661;-67
2021/07/11 02:24:49;;;;;;;19.10;9.97;;;;;;;15.99;79.10;100736.66;5028226;28;20209;-67
2021/07/11 02:27:19;;;;;;;11.47;9.37;;;;;;;15.86;78.47;100744.03;5017294;28;20223;-67
2021/07/11 02:29:51;;;;;;;15.50;8.80;;;;;;;15.74;78.77;100732.50;5017834;28;20234;-67
2021/07/11 02:32:18;;;;;;;14.53;9.70;;;;;;;15.69;79.06;100734.72;5021968;28;20287;-67
2021/07/11 02:34:47;;;;;;;12.20;9.23;;;;;;;15.66;79.24;100740.34;5013942;28;20667;-67
2021/07/11 02:37:18;;;;;;;11.17;9.70;;;;;;;15.62;79.16;100749.63;5016016;28;20238;-67
2021/07/11 02:39:49;;;;;;;10.43;9.30;;;;;;;15.59;79.25;100744.50;5021179;28;20199;-67
2021/07/11 02:42:17;;;;;;;11.57;9.63;;;;;;;15.59;79.53;100749.88;5017200;28;20223;-66
2021/07/11 02:44:47;;;;;;;16.90;10.53;;;;;;;15.58;79.61;100748.19;5020575;28;20767;-67
2021/07/11 02:47:16;;;;;;;12.70;10.17;;;;;;;15.57;79.58;100750.03;5030728;28;20225;-67
2021/07/11 02:49:46;;;;;;;11.33;10.17;;;;;;;15.55;79.77;100745.72;5022880;28;20244;-67
2021/07/11 02:52:16;;;;;;;14.00;10.90;;;;;;;15.55;79.67;100745.72;5030397;28;20233;-67
2021/07/11 02:54:45;;;;;;;11.67;10.47;;;;;;;15.56;79.95;100748.31;5019963;28;20574;-67
2021/07/11 02:57:15;;;;;;;16.20;9.87;;;;;;;15.56;79.49;100747.47;5031668;28;20229;-67
2021/07/11 02:59:42;;;;;;;15.80;10.07;;;;;;;15.51;79.37;100753.16;5029356;28;20213;-67
2021/07/11 03:02:10;;;;;;;20.00;9.87;;;;;;;15.46;79.15;100750.00;5028065;28;20233;-66
2021/07/11 03:04:39;;;;;;;18.50;9.83;;;;;;;15.43;79.34;100752.94;5027510;28;20202;-68
2021/07/11 03:07:06;;;;;;;13.63;11.97;;;;;;;15.44;79.71;100748.41;5041868;22;20235;-66
2021/07/11 03:09:35;;;;;;;16.10;12.27;;;;;;;15.48;80.15;100749.88;5030481;28;20202;-64
2021/07/11 03:12:03;;;;;;;15.47;11.50;;;;;;;15.51;80.41;100752.31;5033006;28;20738;-64
2021/07/11 03:14:30;;;;;;;13.40;11.63;;;;;;;15.52;80.41;100754.03;5032969;28;20297;-63
2021/07/11 03:16:59;;;;;;;14.43;11.27;;;;;;;15.53;80.68;100751.22;5017825;28;20233;-65
2021/07/11 03:19:28;;;;;;;12.03;10.57;;;;;;;15.54;80.99;100757.44;5006078;28;20211;-65
2021/07/11 03:21:55;;;;;;;13.03;11.20;;;;;;;15.54;80.91;100757.44;5007201;28;20203;-65
2021/07/11 03:24:23;;;;;;;11.33;10.10;;;;;;;15.54;81.29;100752.91;5006092;28;20214;-65
2021/07/11 03:26:53;;;;;;;13.10;11.87;;;;;;;15.57;81.40;100754.53;5002428;28;20258;-65
2021/07/11 03:29:28;;;;;;;16.30;10.83;;;;;;;15.58;81.43;100757.09;5002973;28;20203;-65
2021/07/11 03:31:56;;;;;;;11.07;9.93;;;;;;;15.58;81.47;100764.31;5001826;28;20207;-65
2021/07/11 03:34:26;;;;;;;11.47;9.80;;;;;;;15.55;81.21;100761.81;4999677;28;20208;-65
2021/07/11 03:36:54;;;;;;;10.17;9.13;;;;;;;15.54;81.59;100762.81;5006532;28;20246;-64
2021/07/11 03:39:22;;;;;;;11.20;10.10;;;;;;;15.53;81.64;100767.31;5002094;28;20218;-65
2021/07/11 03:41:50;;;;;;;12.40;9.67;;;;;;;15.51;81.69;100763.91;5011564;28;20589;-64
2021/07/11 03:44:20;;;;;;;14.03;9.37;;;;;;;15.51;81.71;100763.06;5011496;28;20598;-64
2021/07/11 03:46:49;;;;;;;18.93;10.60;;;;;;;15.50;81.38;100761.34;5011988;28;20301;-64
2021/07/11 03:49:19;;;;;;;15.73;10.77;;;;;;;15.48;81.19;100755.25;5012035;28;20555;-66
2021/07/11 03:51:47;;;;;;;16.20;10.37;;;;;;;15.45;81.05;100766.22;5005977;28;20242;-66
2021/07/11 03:54:15;;;;;;;19.77;10.33;;;;;;;15.40;80.64;100755.91;5012479;28;20212;-64
2021/07/11 03:56:45;;;;;;;16.67;10.43;;;;;;;15.38;80.81;100770.41;5002393;28;20625;-66
2021/07/11 03:59:12;;;;;;;19.10;11.73;;;;;;;15.37;80.72;100774.06;5003127;28;20247;-64
2021/07/11 04:01:43;;;;;;;19.90;11.67;;;;;;;15.34;81.11;100777.84;4996942;28;20210;-66
2021/07/11 04:04:21;;;;;;;18.73;10.80;;;;;;;15.31;81.12;100774.56;5012921;28;20777;-64
2021/07/11 04:06:49;;;;;;;11.70;10.50;;;;;;;15.30;81.38;100776.38;5009799;28;20237;-65
2021/07/11 04:09:18;;;;;;;14.57;10.73;;;;;;;15.33;81.51;100780.66;5003865;28;20221;-65
2021/07/11 04:11:45;;;;;;;12.67;11.43;;;;;;;15.35;81.82;100786.75;5003038;28;20219;-65
2021/07/11 04:14:15;;;;;;;15.90;11.87;;;;;;;15.39;82.05;100780.16;4996613;28;20207;-65
2021/07/11 04:16:45;;;;;;;16.77;12.23;;;;;;;15.43;82.08;100786.97;5008426;28;20231;-66
2021/07/11 04:19:14;;;;;;;16.90;12.10;;;;;;;15.44;82.27;100786.84;5001792;28;20210;-64
2021/07/11 04:21:42;;;;;;;20.30;12.90;;;;;;;15.45;82.11;100788.56;5001933;28;20199;-65
2021/07/11 04:24:08;;;;;;;18.40;12.60;;;;;;;15.46;82.53;100786.72;5000230;28;20207;-66
2021/07/11 04:26:38;;;;;;;17.60;12.20;;;;;;;15.49;82.44;100781.09;5003190;28;20228;-66
2021/07/11 04:29:05;;;;;;;22.00;14.83;;;;;;;15.53;83.11;100785.25;5012237;28;20234;-65
2021/07/11 04:31:32;;;;;;;23.20;15.60;;;;;;;15.57;83.50;100787.59;4999156;28;20677;-64
2021/07/11 04:34:13;;;;;;;27.67;15.50;;;;;;;15.65;83.54;100786.09;4997972;28;20204;-67
2021/07/11 04:36:40;;;;;;;28.80;16.73;;;;;;;15.71;83.84;100789.16;5001568;28;20518;-65
2021/07/11 04:39:08;;;;;;;28.10;15.63;;;;;;;15.77;83.98;100791.31;5001814;28;20199;-66
2021/07/11 04:41:37;;;;;;;24.33;17.10;;;;;;;15.81;84.29;100791.91;5002942;28;20208;-65
2021/07/11 04:44:05;;;;;;;23.33;14.93;;;;;;;15.86;84.51;100795.06;5004670;28;20217;-65
2021/07/11 04:46:31;;;;;;;24.03;15.83;;;;;;;15.90;84.47;100794.69;4999367;28;20223;-66
2021/07/11 04:48:59;;;;;;;22.90;15.70;;;;;;;15.94;85.03;100788.06;4996843;28;20203;-66
2021/07/11 04:51:26;;;;;;;26.30;16.93;;;;;;;16.00;84.92;100791.22;5011657;28;20236;-66
2021/07/11 04:53:52;;;;;;;24.60;17.57;;;;;;;16.05;85.08;100789.88;5008248;28;20223;-65
2021/07/11 04:56:19;;;;;;;22.90;17.00;;;;;;;16.12;85.18;100790.22;5005212;28;20224;-66
2021/07/11 04:58:45;;;;;;;24.47;16.67;;;;;;;16.15;85.10;100787.25;5004920;28;20205;-65
2021/07/11 05:01:12;;;;;;;24.90;17.07;;;;;;;16.19;85.35;100791.38;5010914;28;20203;-67
2021/07/11 05:03:38;;;;;;;30.80;17.87;;;;;;;16.24;85.63;100799.94;5010450;28;20689;-66
2021/07/11 05:06:06;;;;;;;22.37;19.27;;;;;;;16.30;85.91;100799.41;5000152;28;20252;-66
2021/07/11 05:08:33;;;;;;;24.57;19.90;;;;;;;16.37;85.69;100799.72;5003292;28;20219;-66
2021/07/11 05:10:59;;;;;;;23.87;19.63;;;;;;;16.41;86.13;100802.03;5002807;28;20229;-64
2021/07/11 05:13:26;;;;;;;25.57;22.43;;;;;;;16.46;86.20;100799.81;5010677;28;20209;-66
2021/07/11 05:15:52;;;;;;;25.73;20.63;;;;;;;16.51;85.90;100797.56;5001847;28;20240;-66
2021/07/11 05:18:19;;;;;;;24.53;20.17;;;;;;;16.55;85.63;100799.00;5000571;28;20203;-64
2021/07/11 05:20:46;;;;;;;21.83;19.60;;;;;;;16.59;85.93;100802.28;5001437;28;20202;-66
2021/07/11 05:23:13;;;;;;;21.93;19.67;;;;;;;16.64;85.88;100802.78;4995228;28;20299;-64
2021/07/11 05:25:40;;;;;;;21.03;18.63;;;;;;;16.69;85.90;100807.75;4997934;28;20225;-66
2021/07/11 05:28:06;;;;;;;20.17;18.17;;;;;;;16.72;85.78;100804.81;4993996;28;20210;-65
2021/07/11 05:30:34;;;;;;;22.27;18.33;;;;;;;16.76;85.65;100800.88;4998176;28;20244;-65
2021/07/11 05:33:01;;;;;;;19.43;17.37;;;;;;;16.80;85.68;100796.94;5002003;28;20219;-67
2021/07/11 05:35:27;;;;;;;18.47;16.67;;;;;;;16.84;85.74;100801.06;4996396;28;20791;-64
2021/07/11 05:37:54;;;;;;;19.43;17.50;;;;;;;16.88;85.60;100803.34;4998958;28;20242;-65
2021/07/11 05:40:23;;;;;;;20.10;18.07;;;;;;;16.94;85.61;100807.34;4996214;28;20672;-65
2021/07/11 05:42:50;;;;;;;18.40;16.67;;;;;;;17.01;85.71;100803.13;4996863;28;20209;-65
2021/07/11 05:45:17;;;;;;;18.97;17.03;;;;;;;17.09;85.78;100800.59;4995326;28;20210;-66
2021/07/11 05:47:44;;;;;;;22.13;17.77;;;;;;;17.15;85.50;100800.06;5001862;28;20233;-67
2021/07/11 05:50:11;;;;;;;18.63;16.63;;;;;;;17.23;85.44;100805.59;4999952;28;20205;-66
2021/07/11 05:52:37;;;;;;;21.70;19.43;;;;;;;17.30;85.13;100803.25;4996105;28;20206;-63
2021/07/11 05:55:04;;;;;;;27.37;19.80;;;;;;;17.33;84.71;100800.28;4995167;28;20220;-65
2021/07/11 05:57:33;;;;;;;21.03;18.23;;;;;;;17.37;84.50;100800.88;5000389;28;20229;-63
2021/07/11 05:59:59;;;;;;;20.50;18.57;;;;;;;17.41;83.98;100803.13;4993276;28;20211;-66
2021/07/11 06:02:27;;;;;;;21.57;19.37;;;;;;;17.46;83.89;100800.03;4996064;28;20199;-64
2021/07/11 06:04:53;;;;;;;21.03;18.90;;;;;;;17.52;83.78;100802.19;4990690;28;20238;-64
2021/07/11 06:07:20;;;;;;;21.37;19.27;;;;;;;17.57;83.48;100803.44;4992403;28;20251;-64
2021/07/11 06:09:47;;;;;;;20.47;18.37;;;;;;;17.63;83.43;100805.59;4997309;28;20208;-66
2021/07/11 06:12:15;;;;;;;20.23;17.87;;;;;;;17.67;83.02;100804.38;4994133;28;20224;-64
2021/07/11 06:14:43;;;;;;;19.27;17.47;;;;;;;17.71;83.04;100796.88;4995611;28;20210;-64
2021/07/11 06:17:10;;;;;;;17.93;16.23;;;;;;;17.75;82.87;100805.50;4994317;28;20219;-64
2021/07/11 06:19:37;;;;;;;20.43;17.90;;;;;;;17.78;82.63;100806.06;4996670;28;20214;-66
2021/07/11 06:22:04;;;;;;;19.50;17.70;;;;;;;17.83;82.71;100795.75;4992216;28;20551;-64
2021/07/11 06:24:30;;;;;;;21.97;19.20;;;;;;;17.88;82.70;100795.31;4998380;28;20580;-64
2021/07/11 06:26:57;;;;;;;20.77;18.57;;;;;;;17.91;82.29;100800.44;4997907;28;20241;-65
2021/07/11 06:29:23;;;;;;;19.33;17.37;;;;;;;17.92;82.05;100800.25;4997872;28;20217;-65
2021/07/11 06:31:51;;;;;;;19.40;17.60;;;;;;;17.95;82.03;100804.53;4998885;28;20229;-64
2021/07/11 06:34:18;;;;;;;20.43;18.43;;;;;;;17.96;81.76;100801.69;4997898;28;20206;-65
2021/07/11 06:36:45;;;;;;;22.13;18.03;;;;;;;17.99;81.73;100804.13;5001843;28;20255;-65
2021/07/11 06:39:11;;;;;;;24.50;17.67;;;;;;;18.06;81.67;100803.56;5000356;28;20214;-64
2021/07/11 06:41:38;;;;;;;19.70;17.70;;;;;;;18.16;81.65;100799.00;5002188;28;20586;-64
2021/07/11 06:44:05;;;;;;;18.87;17.13;;;;;;;18.33;81.99;100806.38;5000814;28;20208;-65
2021/07/11 06:46:31;;;;;;;20.43;18.13;;;;;;;18.51;81.86;100806.50;5004538;28;20743;-67
2021/07/11 06:48:59;;;;;;;19.33;17.47;;;;;;;18.69;81.64;100802.94;4999218;28;20211;-66
2021/07/11 06:51:26;;;;;;;19.23;17.53;;;;;;;18.88;81.41;100793.09;4998017;28;20723;-64
2021/07/11 06:53:52;;;;;;;19.17;17.40;;;;;;;19.10;80.95;100799.97;5001136;28;20221;-67
2021/07/11 06:56:19;;;;;;;19.63;16.73;;;;;;;19.30;80.22;100796.19;5011904;28;20230;-63
2021/07/11 06:58:45;;;;;;;18.20;16.50;;;;;;;19.46;78.99;100799.09;5012230;28;20228;-67
2021/07/11 07:01:12;;;;;;;22.10;16.87;;;;;;;19.61;78.09;100799.47;5012806;28;20201;-66
2021/07/11 07:03:38;;;;;;;20.07;17.00;;;;;;;19.75;77.62;100796.25;5003730;28;20212;-64
2021/07/11 07:06:09;;;;;;;20.00;18.03;;;;;;;19.94;76.97;100798.81;5009486;28;20240;-66
2021/07/11 07:08:36;;;;;;;18.53;16.60;;;;;;;20.13;76.66;100789.69;4998532;28;20209;-64
2021/07/11 07:11:02;;;;;;;18.10;16.50;;;;;;;20.35;75.73;100788.38;4999879;28;20334;-63
2021/07/11 07:13:29;;;;;;;18.07;16.20;;;;;;;20.55;74.97;100798.03;4999184;28;20217;-66
2021/07/11 07:15:55;;;;;;;17.93;16.23;;;;;;;20.71;73.64;100803.56;5010113;28;20228;-65
2021/07/11 07:18:22;;;;;;;18.50;16.70;;;;;;;20.90;72.98;100815.19;5005560;28;20215;-64
2021/07/11 07:20:48;;;;;;;18.23;16.53;;;;;;;21.06;72.67;100813.41;5005834;28;20206;-65
2021/07/11 07:23:16;;;;;;;18.50;16.80;;;;;;;21.29;72.40;100810.19;5000767;28;20201;-64
2021/07/11 07:25:43;;;;;;;19.50;16.07;;;;;;;21.52;71.40;100810.41;4997475;28;20206;-64
2021/07/11 07:28:11;;;;;;;20.27;17.40;;;;;;;21.72;70.22;100812.69;5001212;28;20225;-63
2021/07/11 07:30:38;;;;;;;18.57;16.67;;;;;;;21.83;69.13;100812.41;5007310;28;20209;-64
2021/07/11 07:33:05;;;;;;;18.77;16.92;;;;;;;21.93;67.53;100814.94;5001289;28;20210;-63
2021/07/11 07:35:32;;;;;;;17.83;16.13;;;;;;;21.99;66.96;100806.16;5002761;28;20214;-67
2021/07/11 07:37:58;;;;;;;18.67;16.70;;;;;;;22.11;66.70;100802.13;5003907;28;20214;-65
2021/07/11 07:40:26;;;;;;;18.17;16.27;;;;;;;22.26;65.69;100799.59;5011061;28;20214;-66
2021/07/11 07:42:53;;;;;;;17.25;15.73;;;;;;;22.38;64.95;100806.41;5000946;28;20217;-65
2021/07/11 07:45:20;;;;;;;19.13;17.20;;;;;;;22.52;64.70;100810.28;5005631;28;20237;-66
2021/07/11 07:47:47;;;;;;;17.90;16.10;;;;;;;22.63;64.25;100806.38;4998462;28;20215;-65
2021/07/11 07:50:14;;;;;;;19.67;17.65;;;;;;;22.75;63.49;100800.41;5000807;28;20205;-67
2021/07/11 07:52:41;;;;;;;18.20;16.30;;;;;;;22.84;62.77;100795.84;5005210;28;20219;-64
2021/07/11 07:55:10;;;;;;;17.85;15.88;;;;;;;23.00;62.93;100803.09;5006697;28;20206;-64
2021/07/11 07:57:38;;;;;;;19.40;16.05;;;;;;;23.16;62.43;100798.47;5006304;28;20251;-67
2021/07/11 08:00:06;;;;;;;18.50;16.77;;;;;;;23.29;61.62;100797.91;5006689;28;20685;-65
2021/07/11 08:02:33;;;;;;;17.75;15.98;;;;;;;23.39;61.18;100801.28;4997523;28;20203;-63
2021/07/11 08:05:00;;;;;;;18.33;16.55;;;;;;;23.53;60.62;100807.88;5006796;28;20213;-67
2021/07/11 08:07:26;;;;;;;17.80;15.95;;;;;;;23.64;60.48;100806.63;5000103;28;20650;-65
2021/07/11 08:09:53;;;;;;;16.60;14.90;;;;;;;23.72;60.13;100796.53;5001565;28;20210;-64
2021/07/11 08:12:20;;;;;;;18.65;16.40;;;;;;;23.80;59.47;100790.22;5000457;28;20223;-67
2021/07/11 08:14:48;;;;;;;17.30;15.70;;;;;;;23.84;59.49;100788.81;5003444;28;20211;-67
2021/07/11 08:17:14;;;;;;;16.40;14.90;;;;;;;23.92;59.75;100790.66;5002671;28;20226;-67
2021/07/11 08:19:41;;;;;;;18.98;15.48;;;;;;;24.04;59.72;100797.34;5000188;28;20221;-67
2021/07/11 08:22:08;;;;;;;17.33;15.65;;;;;;;24.20;59.35;100803.53;4995611;28;20215;-67
2021/07/11 08:24:34;;;;;;;17.73;15.45;;;;;;;24.31;58.45;100791.41;4995160;28;20225;-64
2021/07/11 08:27:01;;;;;;;16.02;14.50;;;;;;;24.42;58.47;100790.13;4999630;28;20732;-64
2021/07/11 08:29:28;;;;;;;15.88;14.50;;;;;;;24.54;57.96;100788.66;4999668;28;20203;-64
2021/07/11 08:31:55;;;;;;;17.08;15.30;;;;;;;24.70;58.23;100796.69;4994040;28;20228;-64
2021/07/11 08:34:22;;;;;;;16.33;14.65;;;;;;;24.83;57.47;100810.50;4996782;28;20688;-64
2021/07/11 08:36:51;;;;;;;14.70;13.40;;;;;;;24.95;58.12;100802.72;5002609;28;20229;-64
2021/07/11 08:39:18;;;;;;;15.93;14.48;;;;;;;25.07;57.39;100814.03;4995963;28;20584;-61
2021/07/11 08:41:44;;;;;;;15.30;13.90;;;;;;;25.08;57.03;100813.81;4998770;28;20473;-64
2021/07/11 08:44:11;;;;;;;16.40;13.60;;;;;;;25.13;57.77;100816.00;4997138;28;20202;-64
2021/07/11 08:46:39;;;;;;;17.35;15.18;;;;;;;25.20;56.86;100819.66;4995152;28;20580;-64
2021/07/11 08:49:07;;;;;;;17.02;15.35;;;;;;;25.24;56.37;100815.53;4994167;28;20665;-65
2021/07/11 08:51:34;;;;;;;17.60;15.90;;;;;;;25.30;55.46;100831.13;4995750;28;20578;-64
2021/07/11 08:54:02;;;;;;;18.10;16.30;;;;;;;25.33;54.98;100828.03;4993479;28;20218;-64
2021/07/11 08:56:28;;;;;;;18.23;16.35;;;;;;;25.29;54.46;100823.97;4998409;28;20223;-65
2021/07/11 08:58:57;;;;;;;18.05;16.25;;;;;;;25.17;53.99;100825.50;4996976;28;20211;-64
2021/07/11 09:01:25;;;;;;;21.23;15.73;;;;;;;25.01;54.06;100828.41;4998126;28;20688;-63
2021/07/11 09:04:02;;;;;;;17.50;15.85;;;;;;;24.86;54.27;100829.19;4994165;28;20211;-64
2021/07/11 09:08:58;;;;;;;23.00;16.33;;;;;;;24.59;54.89;100824.34;5019623;28;20249;-68
2021/07/11 09:11:24;;;;;;;20.83;17.13;;;;;;;24.46;55.70;100824.13;5009749;28;20210;-67
2021/07/11 09:13:52;;;;;;;19.17;17.17;;;;;;;24.42;56.26;100828.22;5009686;28;20786;-67
2021/07/11 09:16:18;;;;;;;18.15;16.35;;;;;;;24.39;56.19;100828.59;5009424;28;20222;-67
2021/07/11 09:18:45;;;;;;;18.58;16.90;;;;;;;24.43;56.70;100821.75;5005943;28;20205;-67
2021/07/11 09:21:12;;;;;;;19.45;17.45;;;;;;;24.53;56.44;100825.09;5007996;28;20241;-67
2021/07/11 09:23:39;;;;;;;18.02;16.42;;;;;;;24.61;55.45;100824.16;5007789;28;20621;-67
2021/07/11 09:26:09;;;;;;;18.02;16.13;;;;;;;24.69;55.24;100822.22;5006825;28;20583;-67
2021/07/11 09:28:38;;;;;;;19.45;16.23;;;;;;;24.78;53.69;100817.53;5007373;28;20210;-67
2021/07/11 09:31:07;;;;;;;18.42;16.63;;;;;;;24.85;53.83;100819.34;5003606;28;20248;-67
2021/07/11 09:33:34;;;;;;;18.63;16.88;;;;;;;24.98;52.77;100826.03;5001998;28;20731;-68
2021/07/11 09:36:06;;;;;;;19.75;17.67;;;;;;;25.10;52.58;100830.00;5005525;28;20210;-68
2021/07/11 09:38:32;;;;;;;18.38;16.73;;;;;;;25.23;53.07;100822.88;5005256;28;20201;-67
2021/07/11 09:40:59;;;;;;;19.27;17.25;;;;;;;25.34;51.99;100824.28;5005637;28;20582;-68
2021/07/11 09:43:26;;;;;;;19.00;17.23;;;;;;;25.44;51.23;100819.34;5007464;28;20198;-67
2021/07/11 09:45:53;;;;;;;18.98;17.10;;;;;;;25.51;50.94;100816.72;5005646;28;20214;-68
2021/07/11 09:48:20;;;;;;;18.17;16.35;;;;;;;25.57;51.09;100819.56;5000988;28;20886;-67
2021/07/11 09:50:46;;;;;;;17.02;15.40;;;;;;;25.67;51.11;100821.16;5001761;28;20221;-69
2021/07/11 09:53:13;;;;;;;19.33;17.42;;;;;;;25.79;50.56;100819.66;5003240;28;20227;-68
2021/07/11 09:55:39;;;;;;;17.58;15.75;;;;;;;25.85;49.96;100818.84;5003425;28;20237;-69
2021/07/11 09:58:08;;;;;;;16.98;15.38;;;;;;;25.94;49.95;100829.47;5006095;28;20601;-69
2021/07/11 10:00:38;;;;;;;17.83;16.23;;;;;;;26.03;49.53;100824.72;5004030;28;20574;-69
2021/07/11 10:03:06;;;;;;;18.52;16.45;;;;;;;26.08;49.70;100816.81;5004450;28;20214;-68
2021/07/11 10:05:34;;;;;;;16.70;15.18;;;;;;;26.13;49.30;100818.97;5004239;28;20209;-69
2021/07/11 10:08:01;;;;;;;14.43;13.15;;;;;;;26.15;48.60;100817.75;5005592;28;20241;-69
2021/07/11 10:10:30;;;;;;;14.55;13.25;;;;;;;26.20;48.38;100814.41;5006532;28;20211;-70
2021/07/11 10:12:58;;;;;;;12.13;11.00;;;;;;;26.26;47.73;100814.47;5007314;28;20234;-67
2021/07/11 10:15:26;;;;;;;12.38;11.18;;;;;;;26.37;47.50;100809.56;5007409;28;20578;-68
2021/07/11 10:18:00;;;;;;;14.00;12.60;;;;;;;26.51;47.23;100817.66;5007011;28;20235;-69
2021/07/11 10:20:33;;;;;;;14.40;12.98;;;;;;;26.63;46.68;100807.06;5007876;28;20202;-70
2021/07/11 10:23:00;;;;;;;13.02;11.82;;;;;;;26.78;47.07;100809.69;5006278;28;20215;-70
2021/07/11 10:25:29;;;;;;;11.32;10.32;;;;;;;26.90;46.11;100813.56;5006610;28;20211;-70
2021/07/11 10:28:07;;;;;;;12.35;11.20;;;;;;;27.03;46.22;100815.59;5005709;28;20228;-69
2021/07/11 10:30:35;;;;;;;11.82;10.32;;;;;;;27.07;45.89;100805.91;5004675;28;20206;-70
2021/07/11 10:33:14;;;;;;;10.88;9.82;;;;;;;27.11;46.38;100809.94;5005182;28;20226;-70
2021/07/11 10:35:52;;;;;;;10.38;9.45;;;;;;;27.16;46.11;100808.31;5004412;28;20215;-69
2021/07/11 10:38:32;;;;;;;10.30;9.30;;;;;;;27.23;46.18;100805.63;5006383;28;20668;-70
2021/07/11 10:41:10;;;;;;;9.30;8.50;;;;;;;27.27;46.36;100807.72;5006404;28;20210;-69
2021/07/11 10:43:37;;;;;;;10.32;9.43;;;;;;;27.28;46.28;100809.41;5005856;28;20282;-68
2021/07/11 10:46:03;;;;;;;10.55;9.65;;;;;;;27.23;46.05;100800.16;5007367;28;20199;-68
2021/07/11 10:48:32;;;;;;;10.00;9.10;;;;;;;27.19;46.27;100802.44;5008613;28;20206;-68
2021/07/11 10:50:59;;;;;;;11.63;9.15;;;;;;;27.20;46.83;100806.88;5009062;28;20210;-68
2021/07/11 10:53:34;;;;;;;10.45;9.45;;;;;;;27.25;47.04;100811.72;5007226;28;20222;-68
2021/07/11 10:56:00;;;;;;;11.23;10.15;;;;;;;27.33;47.36;100811.56;5007879;28;20317;-69
2021/07/11 10:58:38;;;;;;;9.55;8.75;;;;;;;27.42;46.71;100810.31;5008825;28;20681;-67
2021/07/11 11:01:16;;;;;;;10.00;8.77;;;;;;;27.42;46.25;100809.47;5007607;28;20207;-69
2021/07/11 11:03:48;;;;;;;9.30;8.50;;;;;;;27.43;46.48;100811.16;5008406;28;20203;-68
2021/07/11 11:06:18;;;;;;;10.43;9.52;;;;;;;27.39;46.21;100808.03;5007872;28;20235;-69
2021/07/11 11:08:45;;;;;;;11.15;10.15;;;;;;;27.40;46.41;100806.13;5003836;28;20213;-68
2021/07/11 11:11:11;;;;;;;10.07;9.27;;;;;;;27.42;46.82;100809.47;5007752;28;20206;-68
2021/07/11 11:13:38;;;;;;;9.38;8.57;;;;;;;27.45;46.80;100804.44;5006747;28;21726;-67
2021/07/11 11:16:16;;;;;;;9.20;8.25;;;;;;;27.46;47.00;100802.56;5005340;28;20222;-68